createdAt,value
2017-12-02T00:00:12.162Z,95271.64
2017-12-02T00:02:40.227Z,95265.63
2017-12-02T00:05:08.572Z,95266.11
2017-12-02T00:07:37.203Z,95267.23
2017-12-02T00:10:05.556Z,95267.11
2017-12-02T00:12:33.895Z,95265.20
2017-12-02T00:15:02.259Z,95270.89
2017-12-02T00:17:30.607Z,95277.88
2017-12-02T00:19:59.003Z,95282.26
2017-12-02T00:22:27.346Z,95281.45
2017-12-02T00:24:55.690Z,95290.03
2017-12-02T00:27:24.046Z,95284.89
2017-12-02T00:29:52.398Z,95284.47
2017-12-02T00:32:20.769Z,95293.33
2017-12-02T00:34:49.110Z,95291.47
2017-12-02T00:37:17.471Z,95298.14
2017-12-02T00:39:45.817Z,95297.83
2017-12-02T00:42:14.190Z,95293.27
2017-12-02T00:44:42.538Z,95300.17
2017-12-02T00:47:10.887Z,95295.14
2017-12-02T00:49:39.240Z,95309.83
2017-12-02T00:52:07.620Z,95310.78
2017-12-02T00:54:35.967Z,95311.78
2017-12-02T00:57:04.323Z,95315.41
2017-12-02T00:59:32.673Z,95316.09
2017-12-02T01:02:01.026Z,95322.63
2017-12-02T01:04:29.400Z,95325.97
2017-12-02T01:06:57.750Z,95329.36
2017-12-02T01:09:26.103Z,95336.00
2017-12-02T01:11:54.462Z,95333.08
2017-12-02T01:14:22.805Z,95336.25
2017-12-02T01:16:51.180Z,95342.05
2017-12-02T01:19:19.523Z,95346.39
2017-12-02T01:21:47.878Z,95345.42
2017-12-02T01:24:16.223Z,95344.64
2017-12-02T01:26:44.569Z,95347.11
2017-12-02T01:29:12.948Z,95347.45
2017-12-02T01:31:41.286Z,95347.68
2017-12-02T01:34:09.642Z,95345.42
2017-12-02T01:36:37.981Z,95349.45
2017-12-02T01:39:06.323Z,95348.98
2017-12-02T01:41:34.707Z,95350.98
2017-12-02T01:44:03.095Z,95356.42
2017-12-02T01:46:31.442Z,95353.69
2017-12-02T01:48:59.822Z,95356.16
2017-12-02T01:51:28.187Z,95350.72
2017-12-02T01:53:56.539Z,95352.92
2017-12-02T01:56:24.892Z,95365.67
2017-12-02T01:58:53.238Z,95364.22
2017-12-02T02:01:21.623Z,95366.17
2017-12-02T02:03:49.962Z,95375.00
2017-12-02T02:06:18.312Z,95372.28
2017-12-02T02:08:46.655Z,95374.71
2017-12-02T02:11:14.994Z,95382.14
2017-12-02T02:13:43.546Z,95375.10
2017-12-02T02:16:11.894Z,95390.03
2017-12-02T02:18:40.235Z,95389.19
2017-12-02T02:21:08.585Z,95389.47
2017-12-02T02:23:36.930Z,95400.34
2017-12-02T02:26:05.301Z,95398.97
2017-12-02T02:28:33.651Z,95402.38
2017-12-02T02:31:01.995Z,95400.48
2017-12-02T02:33:30.339Z,95404.80
2017-12-02T02:35:58.687Z,95407.13
2017-12-02T02:38:27.398Z,95405.41
2017-12-02T02:40:56.172Z,95409.70
2017-12-02T02:43:24.896Z,95402.34
2017-12-02T02:45:53.532Z,95404.66
2017-12-02T02:48:22.158Z,95399.41
2017-12-02T02:50:51.103Z,95408.37
2017-12-02T02:53:22.427Z,95406.84
2017-12-02T02:55:51.415Z,95405.05
2017-12-02T02:58:20.667Z,95405.90
2017-12-02T03:00:49.324Z,95399.20
2017-12-02T03:03:17.849Z,95403.99
2017-12-02T03:05:46.215Z,95404.09
2017-12-02T03:08:14.690Z,95402.44
2017-12-02T03:10:43.031Z,95412.44
2017-12-02T03:13:11.383Z,95411.67
2017-12-02T03:15:39.731Z,95411.04
2017-12-02T03:18:08.085Z,95411.28
2017-12-02T03:20:36.559Z,95409.86
2017-12-02T03:23:04.908Z,95416.42
2017-12-02T03:25:33.255Z,95418.66
2017-12-02T03:28:01.604Z,95415.55
2017-12-02T03:30:29.947Z,95416.73
2017-12-02T03:32:58.326Z,95423.86
2017-12-02T03:35:26.679Z,95422.41
2017-12-02T03:37:55.022Z,95428.12
2017-12-02T03:40:23.367Z,95424.63
2017-12-02T03:42:51.743Z,95431.36
2017-12-02T03:45:20.103Z,95426.58
2017-12-02T03:47:48.447Z,95432.24
2017-12-02T03:50:16.799Z,95432.83
2017-12-02T03:52:45.142Z,95436.57
2017-12-02T03:55:13.692Z,95438.52
2017-12-02T03:57:42.044Z,95435.13
2017-12-02T04:00:30.773Z,95446.91
2017-12-02T04:02:59.130Z,95450.11
2017-12-02T04:05:27.510Z,95448.73
2017-12-02T04:07:55.858Z,95453.11
2017-12-02T04:10:24.206Z,95452.03
2017-12-02T04:12:52.555Z,95457.94
2017-12-02T04:15:20.910Z,95459.20
2017-12-02T04:17:49.322Z,95459.22
2017-12-02T04:20:17.673Z,95460.37
2017-12-02T04:22:46.018Z,95457.33
2017-12-02T04:25:14.370Z,95459.05
2017-12-02T04:27:42.715Z,95463.12
2017-12-02T04:30:11.073Z,95459.22
2017-12-02T04:32:39.419Z,95458.91
2017-12-02T04:35:07.950Z,95463.56
2017-12-02T04:37:36.298Z,95465.39
2017-12-02T04:40:04.647Z,95467.88
2017-12-02T04:42:32.992Z,95465.67
2017-12-02T04:45:01.344Z,95465.14
2017-12-02T04:47:29.717Z,95469.98
2017-12-02T04:49:58.071Z,95467.30
2017-12-02T04:52:26.414Z,95463.71
2017-12-02T04:54:54.763Z,95474.43
2017-12-02T04:57:23.117Z,95476.73
2017-12-02T04:59:51.545Z,95486.04
2017-12-02T05:02:19.866Z,95477.69
2017-12-02T05:04:48.210Z,95484.06
2017-12-02T05:07:16.564Z,95484.43
2017-12-02T05:09:44.908Z,95491.32
2017-12-02T05:12:13.251Z,95485.17
2017-12-02T05:14:41.636Z,95482.52
2017-12-02T05:17:09.976Z,95480.74
2017-12-02T05:19:38.333Z,95478.95
2017-12-02T05:22:06.685Z,95479.42
2017-12-02T05:24:35.032Z,95476.14
2017-12-02T05:27:03.422Z,95479.39
2017-12-02T05:29:31.777Z,95476.91
2017-12-02T05:32:00.114Z,95479.31
2017-12-02T05:34:28.467Z,95474.02
2017-12-02T05:36:56.810Z,95480.72
2017-12-02T05:39:25.300Z,95486.94
2017-12-02T05:41:53.646Z,95494.45
2017-12-02T05:44:21.990Z,95491.17
2017-12-02T05:46:50.348Z,95486.77
2017-12-02T05:49:18.691Z,95492.14
2017-12-02T05:51:47.078Z,95497.95
2017-12-02T05:54:15.427Z,95498.48
2017-12-02T05:56:43.773Z,95495.97
2017-12-02T05:59:12.109Z,95492.44
2017-12-02T06:01:40.469Z,95494.30
2017-12-02T06:04:08.844Z,95500.13
2017-12-02T06:06:37.182Z,95498.69
2017-12-02T06:09:05.531Z,95503.01
2017-12-02T06:11:33.883Z,95509.23
2017-12-02T06:14:02.226Z,95516.43
2017-12-02T06:16:30.624Z,95512.67
2017-12-02T06:18:58.982Z,95520.13
2017-12-02T06:21:27.326Z,95514.58
2017-12-02T06:23:55.671Z,95516.08
2017-12-02T06:26:24.028Z,95525.66
2017-12-02T06:28:52.462Z,95531.38
2017-12-02T06:31:20.807Z,95528.20
2017-12-02T06:33:49.159Z,95519.34
2017-12-02T06:36:17.531Z,95526.22
2017-12-02T06:38:45.874Z,95527.82
2017-12-02T06:41:14.355Z,95530.23
2017-12-02T06:43:42.702Z,95524.75
2017-12-02T06:46:11.051Z,95527.45
2017-12-02T06:48:39.396Z,95530.98
2017-12-02T06:51:07.745Z,95534.83
2017-12-02T06:53:36.120Z,95536.17
2017-12-02T06:56:04.472Z,95543.23
2017-12-02T06:58:32.822Z,95545.90
2017-12-02T07:01:01.176Z,95553.34
2017-12-02T07:03:29.531Z,95549.00
2017-12-02T07:05:57.914Z,95550.69
2017-12-02T07:08:26.259Z,95552.39
2017-12-02T07:10:54.616Z,95560.10
2017-12-02T07:13:22.991Z,95567.29
2017-12-02T07:15:51.339Z,95567.10
2017-12-02T07:18:19.693Z,95565.91
2017-12-02T07:20:48.034Z,95568.15
2017-12-02T07:23:16.395Z,95568.70
2017-12-02T07:25:44.881Z,95566.23
2017-12-02T07:28:13.236Z,95573.77
2017-12-02T07:30:41.577Z,95578.03
2017-12-02T07:33:09.922Z,95573.81
2017-12-02T07:35:38.287Z,95575.55
2017-12-02T07:38:06.666Z,95587.94
2017-12-02T07:40:35.017Z,95589.36
2017-12-02T07:43:03.366Z,95586.77
2017-12-02T07:45:31.713Z,95592.84
2017-12-02T07:48:00.062Z,95595.78
2017-12-02T07:50:28.455Z,95594.84
2017-12-02T07:52:56.800Z,95599.92
2017-12-02T07:55:25.175Z,95606.24
2017-12-02T07:57:53.528Z,95609.16
2017-12-02T08:00:21.888Z,95608.63
2017-12-02T08:02:50.279Z,95616.13
2017-12-02T08:05:18.637Z,95613.73
2017-12-02T08:07:46.981Z,95618.59
2017-12-02T08:10:15.324Z,95620.41
2017-12-02T08:12:43.672Z,95623.45
2017-12-02T08:15:12.042Z,95625.20
2017-12-02T08:17:40.387Z,95624.50
2017-12-02T08:20:09.434Z,95622.63
2017-12-02T08:22:37.795Z,95614.78
2017-12-02T08:25:06.151Z,95621.05
2017-12-02T08:27:34.532Z,95621.45
2017-12-02T08:30:02.879Z,95618.27
2017-12-02T08:32:31.223Z,95625.22
2017-12-02T08:34:59.583Z,95625.53
2017-12-02T08:37:27.936Z,95626.98
2017-12-02T08:39:56.316Z,95625.39
2017-12-02T08:42:24.663Z,95635.34
2017-12-02T08:44:53.013Z,95630.50
2017-12-02T08:47:21.357Z,95630.22
2017-12-02T08:49:49.706Z,95631.36
2017-12-02T08:52:18.092Z,95632.47
2017-12-02T08:54:46.486Z,95629.98
2017-12-02T08:57:14.835Z,95633.40
2017-12-02T08:59:43.184Z,95627.13
2017-12-02T09:02:11.527Z,95624.63
2017-12-02T09:04:39.912Z,95628.83
2017-12-02T09:07:08.262Z,95621.32
2017-12-02T09:09:36.634Z,95628.88
2017-12-02T09:12:04.977Z,95632.47
2017-12-02T09:14:33.327Z,95630.30
2017-12-02T09:17:01.686Z,95641.18
2017-12-02T09:19:30.071Z,95631.77
2017-12-02T09:21:58.433Z,95631.63
2017-12-02T09:24:26.789Z,95631.83
2017-12-02T09:26:55.176Z,95639.20
2017-12-02T09:29:23.532Z,95644.37
2017-12-02T09:31:51.897Z,95644.93
2017-12-02T09:34:20.237Z,95642.31
2017-12-02T09:36:48.574Z,95645.45
2017-12-02T09:39:16.916Z,95652.62
2017-12-02T09:41:45.260Z,95660.62
2017-12-02T09:44:13.602Z,95662.41
2017-12-02T09:46:41.950Z,95661.89
2017-12-02T09:49:10.314Z,95660.86
2017-12-02T09:51:38.650Z,95663.17
2017-12-02T09:54:07.755Z,95673.16
2017-12-02T09:56:36.113Z,95668.20
2017-12-02T09:59:04.463Z,95669.47
2017-12-02T10:01:32.819Z,95663.87
2017-12-02T10:04:01.184Z,95667.52
2017-12-02T10:06:29.530Z,95668.45
2017-12-02T10:08:57.883Z,95670.35
2017-12-02T10:11:26.247Z,95674.02
2017-12-02T10:13:54.603Z,95675.34
2017-12-02T10:16:22.966Z,95675.71
2017-12-02T10:18:51.314Z,95668.81
2017-12-02T10:21:19.687Z,95675.55
2017-12-02T10:23:48.047Z,95671.81
2017-12-02T10:26:16.399Z,95671.79
2017-12-02T10:28:44.752Z,95670.02
2017-12-02T10:31:13.104Z,95672.06
2017-12-02T10:33:41.454Z,95669.13
2017-12-02T10:36:09.807Z,95667.05
2017-12-02T10:38:38.154Z,95668.91
2017-12-02T10:41:06.522Z,95670.80
2017-12-02T10:43:34.890Z,95670.70
2017-12-02T10:46:03.248Z,95674.34
2017-12-02T10:48:31.636Z,95672.27
2017-12-02T10:50:59.996Z,95669.38
2017-12-02T10:53:28.367Z,95669.23
2017-12-02T10:55:56.753Z,95659.94
2017-12-02T10:58:25.103Z,95661.03
2017-12-02T11:00:53.458Z,95659.95
2017-12-02T11:03:21.839Z,95664.89
2017-12-02T11:05:50.186Z,95658.84
2017-12-02T11:08:18.539Z,95670.29
2017-12-02T11:10:46.919Z,95670.77
2017-12-02T11:13:15.274Z,95672.34
2017-12-02T11:15:43.628Z,95669.13
2017-12-02T11:18:12.009Z,95667.86
2017-12-02T11:20:40.361Z,95669.09
2017-12-02T11:23:08.711Z,95664.70
2017-12-02T11:25:37.106Z,95667.28
2017-12-02T11:28:05.466Z,95662.65
2017-12-02T11:30:33.829Z,95666.20
2017-12-02T11:33:02.212Z,95658.27
2017-12-02T11:35:30.554Z,95658.80
2017-12-02T11:37:59.108Z,95654.89
2017-12-02T11:40:27.541Z,95655.70
2017-12-02T11:42:55.888Z,95666.36
2017-12-02T11:45:24.232Z,95665.16
2017-12-02T11:47:52.580Z,95666.45
2017-12-02T11:50:20.930Z,95659.35
2017-12-02T11:55:23.879Z,95660.52
2017-12-02T11:57:52.235Z,95664.67
2017-12-02T12:00:20.580Z,95655.94
2017-12-02T12:02:48.928Z,95650.55
2017-12-02T12:05:17.280Z,95654.78
2017-12-02T12:07:45.623Z,95649.33
2017-12-02T12:10:13.967Z,95653.62
2017-12-02T12:12:42.302Z,95652.88
2017-12-02T12:15:10.656Z,95654.30
2017-12-02T12:17:39.000Z,95653.87
2017-12-02T12:20:07.346Z,95646.58
2017-12-02T12:22:35.695Z,95649.05
2017-12-02T12:25:04.035Z,95652.42
2017-12-02T12:27:32.377Z,95643.93
2017-12-02T12:30:00.724Z,95641.45
2017-12-02T12:32:29.074Z,95643.53
2017-12-02T12:34:57.439Z,95637.30
2017-12-02T12:37:25.796Z,95638.50
2017-12-02T12:39:54.154Z,95639.99
2017-12-02T12:42:22.515Z,95633.02
2017-12-02T12:44:50.878Z,95636.62
2017-12-02T12:47:19.233Z,95627.93
2017-12-02T12:49:47.576Z,95624.38
2017-12-02T12:52:15.919Z,95623.66
2017-12-02T12:54:44.267Z,95616.16
2017-12-02T12:57:12.744Z,95620.98
2017-12-02T12:59:41.099Z,95616.06
2017-12-02T13:02:09.454Z,95616.95
2017-12-02T13:04:37.819Z,95618.44
2017-12-02T13:07:06.186Z,95619.02
2017-12-02T13:09:34.542Z,95604.02
2017-12-02T13:12:02.914Z,95612.66
2017-12-02T13:14:31.316Z,95613.09
2017-12-02T13:16:59.647Z,95610.44
